sensor_id;sensor_type;location;lat;lon;timestamp;pressure;altitude;pressure_sealevel;temperature;humidity
9935;BME280;5006;41.828;23.478;2023-04-26T00:01:00;89355.72;;;12.58;81.16
9935;BME280;5006;41.828;23.478;2023-04-26T00:02:07;89351.06;;;12.46;80.92
9935;BME280;5006;41.828;23.478;2023-04-26T00:03:12;89347.59;;;12.77;80.18
9935;BME280;5006;41.828;23.478;2023-04-26T00:04:18;89340.19;;;12.49;80.92
9935;BME280;5006;41.828;23.478;2023-04-26T00:05:23;89342.72;;;12.40;80.67
9935;BME280;5006;41.828;23.478;2023-04-26T00:06:30;89343.78;;;11.95;83.11
9935;BME280;5006;41.828;23.478;2023-04-26T00:07:35;89350.56;;;11.99;83.57
9935;BME280;5006;41.828;23.478;2023-04-26T00:08:42;89342.69;;;12.08;83.72
9935;BME280;5006;41.828;23.478;2023-04-26T00:09:49;89343.97;;;12.20;82.50
9935;BME280;5006;41.828;23.478;2023-04-26T00:10:55;89354.97;;;12.25;83.31
9935;BME280;5006;41.828;23.478;2023-04-26T00:12:00;89353.41;;;11.92;83.88
9935;BME280;5006;41.828;23.478;2023-04-26T00:13:06;89349.50;;;12.29;83.04
9935;BME280;5006;41.828;23.478;2023-04-26T00:14:12;89350.53;;;12.35;82.39
9935;BME280;5006;41.828;23.478;2023-04-26T00:15:19;89343.63;;;12.18;83.42
9935;BME280;5006;41.828;23.478;2023-04-26T00:16:24;89344.31;;;11.86;83.61
9935;BME280;5006;41.828;23.478;2023-04-26T00:17:30;89346.94;;;11.90;83.60
9935;BME280;5006;41.828;23.478;2023-04-26T00:18:35;89338.94;;;11.70;84.62
9935;BME280;5006;41.828;23.478;2023-04-26T00:19:41;89341.63;;;11.70;84.23
9935;BME280;5006;41.828;23.478;2023-04-26T00:20:47;89343.56;;;11.70;84.96
9935;BME280;5006;41.828;23.478;2023-04-26T00:21:53;89335.09;;;11.87;84.74
9935;BME280;5006;41.828;23.478;2023-04-26T00:22:58;89343.19;;;12.03;83.93
9935;BME280;5006;41.828;23.478;2023-04-26T00:24:05;89344.91;;;12.13;83.90
9935;BME280;5006;41.828;23.478;2023-04-26T00:25:12;89338.44;;;12.27;83.45
9935;BME280;5006;41.828;23.478;2023-04-26T00:26:19;89343.22;;;12.19;82.70
9935;BME280;5006;41.828;23.478;2023-04-26T00:27:25;89328.09;;;12.09;83.68
9935;BME280;5006;41.828;23.478;2023-04-26T00:28:31;89333.09;;;11.91;81.81
9935;BME280;5006;41.828;23.478;2023-04-26T00:29:36;89337.69;;;12.42;81.22
9935;BME280;5006;41.828;23.478;2023-04-26T00:30:42;89339.84;;;12.95;81.26
9935;BME280;5006;41.828;23.478;2023-04-26T00:31:51;89333.13;;;12.71;80.75
9935;BME280;5006;41.828;23.478;2023-04-26T00:32:58;89335.84;;;12.39;81.07
9935;BME280;5006;41.828;23.478;2023-04-26T00:34:03;89328.44;;;12.27;81.63
9935;BME280;5006;41.828;23.478;2023-04-26T00:35:09;89327.09;;;12.35;82.43
9935;BME280;5006;41.828;23.478;2023-04-26T00:36:14;89335.16;;;12.67;80.95
9935;BME280;5006;41.828;23.478;2023-04-26T00:37:23;89326.41;;;12.47;80.81
9935;BME280;5006;41.828;23.478;2023-04-26T00:38:28;89329.41;;;12.81;80.26
9935;BME280;5006;41.828;23.478;2023-04-26T00:39:35;89328.28;;;13.10;78.62
9935;BME280;5006;41.828;23.478;2023-04-26T00:40:41;89330.88;;;13.14;79.40
9935;BME280;5006;41.828;23.478;2023-04-26T00:41:48;89326.03;;;13.37;76.54
9935;BME280;5006;41.828;23.478;2023-04-26T00:42:56;89336.91;;;12.42;79.32
9935;BME280;5006;41.828;23.478;2023-04-26T00:44:03;89331.97;;;12.40;79.75
9935;BME280;5006;41.828;23.478;2023-04-26T00:45:09;89334.75;;;11.85;81.30
9935;BME280;5006;41.828;23.478;2023-04-26T00:46:16;89331.53;;;12.42;81.02
9935;BME280;5006;41.828;23.478;2023-04-26T00:47:23;89345.97;;;12.00;80.81
9935;BME280;5006;41.828;23.478;2023-04-26T00:48:30;89341.50;;;11.58;82.81
9935;BME280;5006;41.828;23.478;2023-04-26T00:49:35;89339.78;;;11.83;83.10
9935;BME280;5006;41.828;23.478;2023-04-26T00:50:42;89335.81;;;12.07;81.57
9935;BME280;5006;41.828;23.478;2023-04-26T00:51:49;89344.63;;;12.08;82.44
9935;BME280;5006;41.828;23.478;2023-04-26T00:52:56;89341.53;;;12.09;81.37
9935;BME280;5006;41.828;23.478;2023-04-26T00:54:01;89346.75;;;12.16;80.30
9935;BME280;5006;41.828;23.478;2023-04-26T00:55:08;89344.13;;;11.97;80.88
9935;BME280;5006;41.828;23.478;2023-04-26T00:56:15;89350.72;;;12.60;78.91
9935;BME280;5006;41.828;23.478;2023-04-26T00:57:23;89347.31;;;12.88;76.81
9935;BME280;5006;41.828;23.478;2023-04-26T00:58:30;89349.63;;;13.17;76.34
9935;BME280;5006;41.828;23.478;2023-04-26T00:59:37;89345.22;;;12.79;76.28
9935;BME280;5006;41.828;23.478;2023-04-26T01:00:42;89340.19;;;12.49;75.68
9935;BME280;5006;41.828;23.478;2023-04-26T01:01:49;89344.91;;;12.13;77.99
9935;BME280;5006;41.828;23.478;2023-04-26T01:02:54;89350.78;;;12.72;77.39
9935;BME280;5006;41.828;23.478;2023-04-26T01:04:01;89352.88;;;12.97;76.48
9935;BME280;5006;41.828;23.478;2023-04-26T01:05:07;89351.44;;;12.92;75.96
9935;BME280;5006;41.828;23.478;2023-04-26T01:06:15;89354.78;;;13.81;73.07
9935;BME280;5006;41.828;23.478;2023-04-26T01:07:21;89350.97;;;13.54;73.03
9935;BME280;5006;41.828;23.478;2023-04-26T01:08:28;89350.16;;;13.41;72.78
9935;BME280;5006;41.828;23.478;2023-04-26T01:09:35;89354.38;;;13.54;72.51
9935;BME280;5006;41.828;23.478;2023-04-26T01:10:41;89356.91;;;13.33;73.02
9935;BME280;5006;41.828;23.478;2023-04-26T01:11:48;89354.97;;;13.05;73.83
9935;BME280;5006;41.828;23.478;2023-04-26T01:12:55;89345.28;;;12.91;73.35
9935;BME280;5006;41.828;23.478;2023-04-26T01:14:01;89350.41;;;12.86;74.05
9935;BME280;5006;41.828;23.478;2023-04-26T01:15:09;89346.81;;;12.13;76.50
9935;BME280;5006;41.828;23.478;2023-04-26T01:16:15;89355.22;;;12.15;77.50
9935;BME280;5006;41.828;23.478;2023-04-26T01:17:23;89340.88;;;12.53;76.92
9935;BME280;5006;41.828;23.478;2023-04-26T01:18:29;89349.56;;;12.09;77.66
9935;BME280;5006;41.828;23.478;2023-04-26T01:19:35;89346.38;;;11.98;78.13
9935;BME280;5006;41.828;23.478;2023-04-26T01:20:41;89344.75;;;12.52;78.00
9935;BME280;5006;41.828;23.478;2023-04-26T01:21:47;89349.69;;;12.54;77.63
9935;BME280;5006;41.828;23.478;2023-04-26T01:22:53;89338.25;;;12.66;77.16
9935;BME280;5006;41.828;23.478;2023-04-26T01:24:00;89338.16;;;12.69;77.28
9935;BME280;5006;41.828;23.478;2023-04-26T01:25:06;89345.72;;;12.90;75.89
9935;BME280;5006;41.828;23.478;2023-04-26T01:26:13;89348.69;;;12.48;76.63
9935;BME280;5006;41.828;23.478;2023-04-26T01:27:18;89349.59;;;12.25;77.19
9935;BME280;5006;41.828;23.478;2023-04-26T01:28:25;89349.06;;;11.63;79.34
9935;BME280;5006;41.828;23.478;2023-04-26T01:29:30;89349.81;;;11.83;79.24
9935;BME280;5006;41.828;23.478;2023-04-26T01:30:37;89354.56;;;11.75;79.51
9935;BME280;5006;41.828;23.478;2023-04-26T01:31:42;89334.81;;;12.17;79.04
9935;BME280;5006;41.828;23.478;2023-04-26T01:32:48;89344.56;;;12.27;78.35
9935;BME280;5006;41.828;23.478;2023-04-26T01:33:53;89347.19;;;12.47;77.07
9935;BME280;5006;41.828;23.478;2023-04-26T01:34:59;89347.59;;;12.45;77.17
9935;BME280;5006;41.828;23.478;2023-04-26T01:36:07;89344.22;;;12.25;77.67
9935;BME280;5006;41.828;23.478;2023-04-26T01:37:13;89342.44;;;12.67;76.28
9935;BME280;5006;41.828;23.478;2023-04-26T01:38:19;89341.47;;;12.61;76.32
9935;BME280;5006;41.828;23.478;2023-04-26T01:39:26;89344.28;;;13.01;74.56
9935;BME280;5006;41.828;23.478;2023-04-26T01:40:32;89343.34;;;13.08;74.94
9935;BME280;5006;41.828;23.478;2023-04-26T01:41:38;89340.66;;;13.08;74.17
9935;BME280;5006;41.828;23.478;2023-04-26T01:42:43;89336.47;;;13.35;73.92
9935;BME280;5006;41.828;23.478;2023-04-26T01:43:49;89341.88;;;13.19;73.51
9935;BME280;5006;41.828;23.478;2023-04-26T01:44:54;89336.97;;;13.30;73.87
9935;BME280;5006;41.828;23.478;2023-04-26T01:46:00;89336.69;;;13.41;72.62
9935;BME280;5006;41.828;23.478;2023-04-26T01:47:08;89334.03;;;13.53;71.53
9935;BME280;5006;41.828;23.478;2023-04-26T01:48:14;89333.16;;;13.15;73.81
9935;BME280;5006;41.828;23.478;2023-04-26T01:49:20;89334.28;;;12.86;75.53
9935;BME280;5006;41.828;23.478;2023-04-26T01:50:26;89331.81;;;13.36;73.75
9935;BME280;5006;41.828;23.478;2023-04-26T01:51:31;89331.56;;;13.59;72.65
9935;BME280;5006;41.828;23.478;2023-04-26T01:52:38;89320.88;;;13.43;72.42
9935;BME280;5006;41.828;23.478;2023-04-26T01:53:44;89326.94;;;12.26;77.47
9935;BME280;5006;41.828;23.478;2023-04-26T01:54:51;89329.97;;;11.77;84.05
9935;BME280;5006;41.828;23.478;2023-04-26T01:55:59;89325.31;;;11.97;86.01
9935;BME280;5006;41.828;23.478;2023-04-26T01:57:05;89332.88;;;12.02;87.02
9935;BME280;5006;41.828;23.478;2023-04-26T01:58:11;89327.00;;;12.55;85.97
9935;BME280;5006;41.828;23.478;2023-04-26T01:59:16;89334.22;;;12.58;84.48
9935;BME280;5006;41.828;23.478;2023-04-26T02:00:22;89318.66;;;12.81;84.35
9935;BME280;5006;41.828;23.478;2023-04-26T02:01:27;89331.44;;;12.61;84.25
9935;BME280;5006;41.828;23.478;2023-04-26T02:02:33;89321.03;;;12.31;86.62
9935;BME280;5006;41.828;23.478;2023-04-26T02:03:39;89329.38;;;12.21;87.73
9935;BME280;5006;41.828;23.478;2023-04-26T02:04:45;89329.94;;;12.44;87.11
9935;BME280;5006;41.828;23.478;2023-04-26T02:05:50;89327.34;;;13.17;85.25
9935;BME280;5006;41.828;23.478;2023-04-26T02:06:56;89327.06;;;13.68;81.88
9935;BME280;5006;41.828;23.478;2023-04-26T02:08:02;89327.41;;;13.83;80.88
9935;BME280;5006;41.828;23.478;2023-04-26T02:09:10;89329.19;;;13.61;81.47
9935;BME280;5006;41.828;23.478;2023-04-26T02:10:18;89337.84;;;13.40;81.12
9935;BME280;5006;41.828;23.478;2023-04-26T02:11:24;89336.13;;;13.74;79.21
9935;BME280;5006;41.828;23.478;2023-04-26T02:12:30;89333.31;;;13.78;78.28
9935;BME280;5006;41.828;23.478;2023-04-26T02:13:36;89340.84;;;13.58;78.72
9935;BME280;5006;41.828;23.478;2023-04-26T02:14:41;89334.94;;;13.34;79.06
9935;BME280;5006;41.828;23.478;2023-04-26T02:15:48;89332.13;;;12.65;80.94
9935;BME280;5006;41.828;23.478;2023-04-26T02:16:53;89328.06;;;12.73;82.24
9935;BME280;5006;41.828;23.478;2023-04-26T02:17:59;89325.88;;;13.00;81.97
9935;BME280;5006;41.828;23.478;2023-04-26T02:19:04;89323.69;;;12.95;82.77
9935;BME280;5006;41.828;23.478;2023-04-26T02:20:14;89319.44;;;13.38;81.59
9935;BME280;5006;41.828;23.478;2023-04-26T02:21:20;89326.22;;;13.96;79.30
9935;BME280;5006;41.828;23.478;2023-04-26T02:22:27;89325.72;;;14.01;78.14
9935;BME280;5006;41.828;23.478;2023-04-26T02:23:33;89318.22;;;13.27;79.90
9935;BME280;5006;41.828;23.478;2023-04-26T02:24:41;89321.50;;;12.74;82.60
9935;BME280;5006;41.828;23.478;2023-04-26T02:25:47;89320.47;;;13.00;83.84
9935;BME280;5006;41.828;23.478;2023-04-26T02:26:55;89326.97;;;13.84;80.52
9935;BME280;5006;41.828;23.478;2023-04-26T02:28:05;89320.75;;;14.00;79.18
9935;BME280;5006;41.828;23.478;2023-04-26T02:29:11;89323.31;;;14.16;77.95
9935;BME280;5006;41.828;23.478;2023-04-26T02:30:16;89325.44;;;13.01;78.77
9935;BME280;5006;41.828;23.478;2023-04-26T02:31:23;89323.94;;;13.70;77.24
9935;BME280;5006;41.828;23.478;2023-04-26T02:32:28;89322.84;;;13.55;78.18
9935;BME280;5006;41.828;23.478;2023-04-26T02:33:35;89322.50;;;14.31;76.44
9935;BME280;5006;41.828;23.478;2023-04-26T02:34:40;89322.13;;;12.66;79.03
9935;BME280;5006;41.828;23.478;2023-04-26T02:35:46;89312.88;;;12.51;80.16
9935;BME280;5006;41.828;23.478;2023-04-26T02:36:51;89318.94;;;12.55;80.21
9935;BME280;5006;41.828;23.478;2023-04-26T02:37:58;89308.50;;;13.17;78.75
9935;BME280;5006;41.828;23.478;2023-04-26T02:39:03;89310.91;;;12.83;78.61
9935;BME280;5006;41.828;23.478;2023-04-26T02:40:12;89314.94;;;13.07;77.64
9935;BME280;5006;41.828;23.478;2023-04-26T02:41:19;89315.06;;;13.16;77.31
9935;BME280;5006;41.828;23.478;2023-04-26T02:42:25;89312.41;;;12.24;78.23
9935;BME280;5006;41.828;23.478;2023-04-26T02:43:30;89311.63;;;12.07;79.12
9935;BME280;5006;41.828;23.478;2023-04-26T02:44:36;89316.59;;;12.09;79.61
9935;BME280;5006;41.828;23.478;2023-04-26T02:45:41;89318.03;;;11.78;80.90
9935;BME280;5006;41.828;23.478;2023-04-26T02:46:50;89319.75;;;11.88;80.68
9935;BME280;5006;41.828;23.478;2023-04-26T02:47:55;89312.84;;;11.71;81.95
9935;BME280;5006;41.828;23.478;2023-04-26T02:49:02;89322.16;;;11.66;81.74
9935;BME280;5006;41.828;23.478;2023-04-26T02:50:08;89322.41;;;11.52;82.01
9935;BME280;5006;41.828;23.478;2023-04-26T02:51:15;89318.28;;;11.67;81.91
9935;BME280;5006;41.828;23.478;2023-04-26T02:52:20;89312.28;;;11.95;81.39
9935;BME280;5006;41.828;23.478;2023-04-26T02:53:26;89317.84;;;11.88;81.79
9935;BME280;5006;41.828;23.478;2023-04-26T02:54:33;89308.09;;;11.94;82.41
9935;BME280;5006;41.828;23.478;2023-04-26T02:55:40;89313.81;;;11.41;83.95
9935;BME280;5006;41.828;23.478;2023-04-26T02:56:45;89312.00;;;10.99;86.22
9935;BME280;5006;41.828;23.478;2023-04-26T02:57:51;89316.91;;;11.40;86.21
9935;BME280;5006;41.828;23.478;2023-04-26T02:58:56;89305.97;;;11.70;85.75
9935;BME280;5006;41.828;23.478;2023-04-26T03:00:02;89313.41;;;11.62;86.77
9935;BME280;5006;41.828;23.478;2023-04-26T03:01:09;89318.34;;;11.44;86.79
9935;BME280;5006;41.828;23.478;2023-04-26T03:02:16;89318.25;;;11.87;85.81
9935;BME280;5006;41.828;23.478;2023-04-26T03:03:21;89315.66;;;11.64;86.84
9935;BME280;5006;41.828;23.478;2023-04-26T03:04:30;89317.13;;;11.84;86.21
9935;BME280;5006;41.828;23.478;2023-04-26T03:05:36;89319.75;;;11.88;86.48
9935;BME280;5006;41.828;23.478;2023-04-26T03:06:42;89319.28;;;12.25;83.99
9935;BME280;5006;41.828;23.478;2023-04-26T03:07:46;89313.38;;;12.14;82.39
9935;BME280;5006;41.828;23.478;2023-04-26T03:08:53;89314.28;;;11.75;82.68
9935;BME280;5006;41.828;23.478;2023-04-26T03:09:58;89313.47;;;11.59;83.75
9935;BME280;5006;41.828;23.478;2023-04-26T03:11:05;89318.69;;;11.66;84.11
9935;BME280;5006;41.828;23.478;2023-04-26T03:12:11;89321.53;;;11.39;84.71
9935;BME280;5006;41.828;23.478;2023-04-26T03:13:17;89319.81;;;11.29;85.75
9935;BME280;5006;41.828;23.478;2023-04-26T03:14:23;89314.84;;;11.47;85.42
9935;BME280;5006;41.828;23.478;2023-04-26T03:15:29;89317.50;;;11.67;83.51
9935;BME280;5006;41.828;23.478;2023-04-26T03:16:40;89316.38;;;11.29;84.60
9935;BME280;5006;41.828;23.478;2023-04-26T03:17:47;89323.56;;;12.06;83.45
9935;BME280;5006;41.828;23.478;2023-04-26T03:18:53;89316.91;;;11.59;83.57
9935;BME280;5006;41.828;23.478;2023-04-26T03:19:59;89323.69;;;11.99;83.07
9935;BME280;5006;41.828;23.478;2023-04-26T03:21:05;89316.59;;;11.73;83.54
9935;BME280;5006;41.828;23.478;2023-04-26T03:22:11;89316.16;;;11.59;84.42
9935;BME280;5006;41.828;23.478;2023-04-26T03:23:20;89329.38;;;11.85;84.14
9935;BME280;5006;41.828;23.478;2023-04-26T03:24:29;89323.59;;;11.51;84.65
9935;BME280;5006;41.828;23.478;2023-04-26T03:25:34;89322.97;;;11.99;84.26
9935;BME280;5006;41.828;23.478;2023-04-26T03:26:41;89324.22;;;12.10;84.05
9935;BME280;5006;41.828;23.478;2023-04-26T03:27:46;89318.25;;;12.19;84.04
9935;BME280;5006;41.828;23.478;2023-04-26T03:28:52;89326.75;;;10.88;91.97
9935;BME280;5006;41.828;23.478;2023-04-26T03:29:57;89338.19;;;10.50;100.00
9935;BME280;5006;41.828;23.478;2023-04-26T03:31:04;89336.72;;;10.22;100.00
9935;BME280;5006;41.828;23.478;2023-04-26T03:32:10;89328.38;;;11.24;100.00
9935;BME280;5006;41.828;23.478;2023-04-26T03:33:16;89331.94;;;11.18;100.00
9935;BME280;5006;41.828;23.478;2023-04-26T03:34:21;89328.69;;;11.65;100.00
9935;BME280;5006;41.828;23.478;2023-04-26T03:35:27;89324.41;;;11.68;100.00
9935;BME280;5006;41.828;23.478;2023-04-26T03:36:32;89327.44;;;11.50;100.00
9935;BME280;5006;41.828;23.478;2023-04-26T03:37:40;89330.94;;;11.08;100.00
9935;BME280;5006;41.828;23.478;2023-04-26T03:38:50;89326.47;;;11.02;100.00
9935;BME280;5006;41.828;23.478;2023-04-26T03:39:57;89334.53;;;11.21;100.00
9935;BME280;5006;41.828;23.478;2023-04-26T03:41:03;89330.16;;;11.31;100.00
9935;BME280;5006;41.828;23.478;2023-04-26T03:42:10;89327.25;;;11.61;100.00
9935;BME280;5006;41.828;23.478;2023-04-26T03:43:17;89328.13;;;11.54;100.00
9935;BME280;5006;41.828;23.478;2023-04-26T03:44:22;89320.91;;;11.87;100.00
9935;BME280;5006;41.828;23.478;2023-04-26T03:45:28;89326.25;;;12.06;100.00
9935;BME280;5006;41.828;23.478;2023-04-26T03:46:33;89323.41;;;12.13;99.65
9935;BME280;5006;41.828;23.478;2023-04-26T03:47:39;89319.59;;;11.95;99.77
9935;BME280;5006;41.828;23.478;2023-04-26T03:48:43;89327.75;;;12.07;100.00
9935;BME280;5006;41.828;23.478;2023-04-26T03:49:50;89328.13;;;11.90;100.00
9935;BME280;5006;41.828;23.478;2023-04-26T03:50:55;89331.81;;;11.80;100.00
9935;BME280;5006;41.828;23.478;2023-04-26T03:52:01;89332.63;;;11.41;100.00
9935;BME280;5006;41.828;23.478;2023-04-26T03:53:06;89336.03;;;11.61;100.00
9935;BME280;5006;41.828;23.478;2023-04-26T03:54:12;89333.34;;;11.61;100.00
9935;BME280;5006;41.828;23.478;2023-04-26T03:55:17;89330.13;;;11.50;100.00
9935;BME280;5006;41.828;23.478;2023-04-26T03:56:23;89338.06;;;11.18;100.00
9935;BME280;5006;41.828;23.478;2023-04-26T03:57:29;89331.66;;;11.51;100.00
9935;BME280;5006;41.828;23.478;2023-04-26T03:58:36;89329.88;;;11.64;100.00
9935;BME280;5006;41.828;23.478;2023-04-26T03:59:41;89327.88;;;11.84;100.00
9935;BME280;5006;41.828;23.478;2023-04-26T04:00:47;89324.72;;;12.37;98.30
9935;BME280;5006;41.828;23.478;2023-04-26T04:01:52;89329.09;;;12.47;96.95
9935;BME280;5006;41.828;23.478;2023-04-26T04:02:59;89329.19;;;12.28;96.60
9935;BME280;5006;41.828;23.478;2023-04-26T04:04:04;89332.53;;;12.64;94.70
9935;BME280;5006;41.828;23.478;2023-04-26T04:05:10;89332.56;;;12.48;93.92
9935;BME280;5006;41.828;23.478;2023-04-26T04:06:15;89333.69;;;12.94;93.11
9935;BME280;5006;41.828;23.478;2023-04-26T04:07:22;89327.28;;;12.88;91.92
9935;BME280;5006;41.828;23.478;2023-04-26T04:08:27;89337.50;;;12.65;93.25
9935;BME280;5006;41.828;23.478;2023-04-26T04:09:33;89334.03;;;12.81;92.57
9935;BME280;5006;41.828;23.478;2023-04-26T04:10:38;89326.63;;;13.00;91.41
9935;BME280;5006;41.828;23.478;2023-04-26T04:11:47;89328.88;;;12.86;91.67
9935;BME280;5006;41.828;23.478;2023-04-26T04:12:53;89329.28;;;12.56;91.94
9935;BME280;5006;41.828;23.478;2023-04-26T04:13:59;89335.97;;;12.80;91.68
9935;BME280;5006;41.828;23.478;2023-04-26T04:15:06;89327.31;;;13.45;89.90
9935;BME280;5006;41.828;23.478;2023-04-26T04:16:15;89334.56;;;13.20;90.42
9935;BME280;5006;41.828;23.478;2023-04-26T04:17:20;89341.75;;;13.10;91.64
9935;BME280;5006;41.828;23.478;2023-04-26T04:18:26;89327.38;;;12.85;91.44
9935;BME280;5006;41.828;23.478;2023-04-26T04:19:31;89336.66;;;12.36;94.26
9935;BME280;5006;41.828;23.478;2023-04-26T04:20:37;89329.91;;;12.12;96.20
9935;BME280;5006;41.828;23.478;2023-04-26T04:21:42;89336.00;;;12.32;96.99
9935;BME280;5006;41.828;23.478;2023-04-26T04:22:49;89333.22;;;12.52;94.67
9935;BME280;5006;41.828;23.478;2023-04-26T04:23:55;89334.19;;;13.34;93.83
9935;BME280;5006;41.828;23.478;2023-04-26T04:25:01;89332.59;;;13.36;91.41
9935;BME280;5006;41.828;23.478;2023-04-26T04:26:08;89341.16;;;12.87;91.40
9935;BME280;5006;41.828;23.478;2023-04-26T04:27:16;89342.44;;;12.98;92.59
9935;BME280;5006;41.828;23.478;2023-04-26T04:28:24;89337.50;;;12.81;92.12
9935;BME280;5006;41.828;23.478;2023-04-26T04:29:31;89339.59;;;12.42;93.16
9935;BME280;5006;41.828;23.478;2023-04-26T04:30:36;89345.22;;;12.95;93.40
9935;BME280;5006;41.828;23.478;2023-04-26T04:31:43;89340.16;;;12.97;92.82
9935;BME280;5006;41.828;23.478;2023-04-26T04:32:48;89337.69;;;13.18;91.83
9935;BME280;5006;41.828;23.478;2023-04-26T04:33:55;89341.69;;;12.82;91.45
9935;BME280;5006;41.828;23.478;2023-04-26T04:35:00;89341.72;;;12.66;93.36
9935;BME280;5006;41.828;23.478;2023-04-26T04:36:07;89339.84;;;12.79;94.05
9935;BME280;5006;41.828;23.478;2023-04-26T04:37:14;89340.66;;;12.92;93.37
9935;BME280;5006;41.828;23.478;2023-04-26T04:38:21;89339.66;;;12.86;93.54
9935;BME280;5006;41.828;23.478;2023-04-26T04:39:27;89341.63;;;13.30;92.12
9935;BME280;5006;41.828;23.478;2023-04-26T04:40:34;89343.94;;;13.28;91.84
9935;BME280;5006;41.828;23.478;2023-04-26T04:41:41;89339.94;;;13.89;90.50
9935;BME280;5006;41.828;23.478;2023-04-26T04:42:51;89343.81;;;14.01;87.20
9935;BME280;5006;41.828;23.478;2023-04-26T04:44:02;89341.53;;;13.74;88.49
9935;BME280;5006;41.828;23.478;2023-04-26T04:45:09;89339.78;;;13.68;88.64
9935;BME280;5006;41.828;23.478;2023-04-26T04:46:16;89344.25;;;13.58;89.08
9935;BME280;5006;41.828;23.478;2023-04-26T04:47:22;89332.59;;;13.36;90.71
9935;BME280;5006;41.828;23.478;2023-04-26T04:48:28;89343.47;;;13.45;90.02
9935;BME280;5006;41.828;23.478;2023-04-26T04:49:34;89350.72;;;13.48;90.42
9935;BME280;5006;41.828;23.478;2023-04-26T04:50:41;89343.59;;;13.42;91.04
9935;BME280;5006;41.828;23.478;2023-04-26T04:51:48;89346.91;;;13.05;91.04
9935;BME280;5006;41.828;23.478;2023-04-26T04:52:53;89352.69;;;13.03;91.85
9935;BME280;5006;41.828;23.478;2023-04-26T04:54:08;89347.56;;;13.91;89.52
9935;BME280;5006;41.828;23.478;2023-04-26T04:55:13;89344.50;;;14.55;87.57
9935;BME280;5006;41.828;23.478;2023-04-26T04:56:20;89340.19;;;14.20;86.42
9935;BME280;5006;41.828;23.478;2023-04-26T04:57:26;89350.81;;;13.86;88.01
9935;BME280;5006;41.828;23.478;2023-04-26T04:58:32;89343.22;;;13.68;89.80
9935;BME280;5006;41.828;23.478;2023-04-26T04:59:38;89348.28;;;13.79;87.39
9935;BME280;5006;41.828;23.478;2023-04-26T05:00:45;89348.19;;;14.36;86.33
9935;BME280;5006;41.828;23.478;2023-04-26T05:02:16;89348.16;;;14.61;85.84
9935;BME280;5006;41.828;23.478;2023-04-26T05:03:22;89351.66;;;13.95;86.89
9935;BME280;5006;41.828;23.478;2023-04-26T05:04:27;89355.13;;;14.08;86.93
9935;BME280;5006;41.828;23.478;2023-04-26T05:05:35;89343.91;;;13.44;88.13
9935;BME280;5006;41.828;23.478;2023-04-26T05:06:41;89348.75;;;12.92;91.28
9935;BME280;5006;41.828;23.478;2023-04-26T05:07:48;89336.50;;;12.59;94.52
9935;BME280;5006;41.828;23.478;2023-04-26T05:08:53;89338.94;;;12.38;97.54
9935;BME280;5006;41.828;23.478;2023-04-26T05:09:59;89338.53;;;12.55;98.54
9935;BME280;5006;41.828;23.478;2023-04-26T05:11:04;89342.53;;;12.95;97.38
9935;BME280;5006;41.828;23.478;2023-04-26T05:12:11;89351.56;;;13.17;94.21
9935;BME280;5006;41.828;23.478;2023-04-26T05:13:16;89337.06;;;13.27;95.20
9935;BME280;5006;41.828;23.478;2023-04-26T05:14:22;89344.66;;;13.44;93.81
9935;BME280;5006;41.828;23.478;2023-04-26T05:15:29;89339.75;;;12.98;95.45
9935;BME280;5006;41.828;23.478;2023-04-26T05:16:37;89339.78;;;13.68;92.21
9935;BME280;5006;41.828;23.478;2023-04-26T05:17:43;89343.75;;;13.63;91.50
9935;BME280;5006;41.828;23.478;2023-04-26T05:18:56;89334.50;;;13.36;91.38
9935;BME280;5006;41.828;23.478;2023-04-26T05:20:01;89334.91;;;14.16;88.85
9935;BME280;5006;41.828;23.478;2023-04-26T05:21:11;89331.94;;;13.98;88.06
9935;BME280;5006;41.828;23.478;2023-04-26T05:22:18;89334.31;;;13.43;89.80
9935;BME280;5006;41.828;23.478;2023-04-26T05:23:26;89337.75;;;13.72;87.75
9935;BME280;5006;41.828;23.478;2023-04-26T05:24:31;89333.84;;;13.73;88.33
9935;BME280;5006;41.828;23.478;2023-04-26T05:25:37;89332.13;;;13.66;88.45
9935;BME280;5006;41.828;23.478;2023-04-26T05:26:57;89328.88;;;13.30;89.79
9935;BME280;5006;41.828;23.478;2023-04-26T05:28:32;89326.50;;;13.20;89.99
9935;BME280;5006;41.828;23.478;2023-04-26T05:30:08;89325.09;;;13.28;91.99
9935;BME280;5006;41.828;23.478;2023-04-26T05:31:24;89330.84;;;13.30;90.52
9935;BME280;5006;41.828;23.478;2023-04-26T05:32:42;89330.66;;;12.92;91.95
9935;BME280;5006;41.828;23.478;2023-04-26T05:34:09;89332.50;;;12.80;93.63
9935;BME280;5006;41.828;23.478;2023-04-26T05:35:17;89333.81;;;12.43;94.48
9935;BME280;5006;41.828;23.478;2023-04-26T05:36:23;89332.56;;;13.08;92.86
9935;BME280;5006;41.828;23.478;2023-04-26T05:37:30;89336.88;;;13.62;89.96
9935;BME280;5006;41.828;23.478;2023-04-26T05:38:34;89327.31;;;13.45;89.25
9935;BME280;5006;41.828;23.478;2023-04-26T05:39:42;89331.34;;;13.25;90.14
9935;BME280;5006;41.828;23.478;2023-04-26T05:40:47;89328.47;;;13.32;91.23
9935;BME280;5006;41.828;23.478;2023-04-26T05:41:53;89328.88;;;13.02;89.36
9935;BME280;5006;41.828;23.478;2023-04-26T05:42:58;89334.22;;;13.46;88.39
9935;BME280;5006;41.828;23.478;2023-04-26T05:44:05;89328.16;;;13.30;88.63
9935;BME280;5006;41.828;23.478;2023-04-26T05:45:11;89330.97;;;13.39;88.94
9935;BME280;5006;41.828;23.478;2023-04-26T05:46:18;89331.06;;;13.89;86.22
9935;BME280;5006;41.828;23.478;2023-04-26T05:47:24;89330.19;;;13.79;87.04
9935;BME280;5006;41.828;23.478;2023-04-26T05:48:31;89324.13;;;13.22;86.68
9935;BME280;5006;41.828;23.478;2023-04-26T05:49:36;89325.69;;;13.35;88.76
9935;BME280;5006;41.828;23.478;2023-04-26T05:50:42;89330.41;;;12.87;91.79
9935;BME280;5006;41.828;23.478;2023-04-26T05:51:47;89326.09;;;13.34;89.10
9935;BME280;5006;41.828;23.478;2023-04-26T05:52:53;89328.25;;;13.39;89.24
9935;BME280;5006;41.828;23.478;2023-04-26T05:53:58;89328.88;;;13.71;87.46
9935;BME280;5006;41.828;23.478;2023-04-26T05:55:06;89330.16;;;14.33;85.14
9935;BME280;5006;41.828;23.478;2023-04-26T05:56:11;89328.75;;;14.41;84.72
9935;BME280;5006;41.828;23.478;2023-04-26T05:57:18;89325.41;;;14.37;85.09
9935;BME280;5006;41.828;23.478;2023-04-26T05:58:23;89325.63;;;14.30;83.37